Abbott, New Mexico
Current Conditions -  °F | °C
As of 2:53 AM on Sunday 26 Oct 2014 (Local Time) from KRTN Reporting Station
Clear Clear  
Wind Chill: 43°   Ceiling: Unl
Heat Index: 46°   Visibility: 10mi
Dew Point: 26°   Wind: 6mph
Humidity: 46%   Direction: 50°NE
Pressure: 30.09"   Gusts: NA
Location:  36.3883°N, 104.381°W
Report Text: KRTN 260853Z AUTO 05005KT 10SM CLR 08/M03 A3009 RMK AO2 SLP109 T00781033 56010
Loading
Personal Weather Stations






























Interactive Weather Map New forecast layout! Learn more

10-Day Weather Forecast

Advertisements
Track Severe Weather on mobile